Terminal Aerodrome Forecast
Issued by NWS

Home | Current Version | Previous Version | Text Only | Print | Product List | Glossary On
Versions: 1 2 3 4 5 6 7 8 9 10 11 12 13 14 15 16
000
FTUS46 KMFR 011147
TAFLMT
TAF
KLMT 011147Z 0112/0212 VRB03KT P6SM SCT200
     FM011500 VRB04KT P6SM FEW050 OVC080
     FM011800 20004KT P6SM VCSH BKN040 OVC060
     FM012100 25008KT P6SM VCSH SCT025 BKN040 OVC100
     FM020100 26008KT P6SM -SHRA BKN025 BKN040=

USA.gov is the U.S. government's official web portal to all federal, state and local government web resources and services.